Time;durP1;ratioP1;P1;durP2;ratioP2;P2;SDS_P1;SDS_P2;PMS_P1;PMS_P2;Temp;Humidity;BMP_temperature;BMP_pressure;BME280_temperature;BME280_humidity;BME280_pressure;Samples;Min_cycle;Max_cycle;Signal;HPM_P1;HPM_P2
2024/03/23 00:01:53;;;;;;;21.00;13.30;;;;;;;9.80;67.77;98477.55;105124;1269;61204;-26
2024/03/23 00:04:21;;;;;;;17.50;9.00;;;;;;;9.67;68.94;98481.14;104870;1269;73019;-25
2024/03/23 00:06:49;;;;;;;17.90;10.80;;;;;;;10.34;67.42;98479.58;104863;1272;74330;-26
2024/03/23 00:09:16;;;;;;;20.90;12.10;;;;;;;10.52;66.08;98476.08;104872;1269;72637;-28
2024/03/23 00:11:44;;;;;;;17.60;10.50;;;;;;;10.48;66.23;98473.31;105061;1270;61260;-27
2024/03/23 00:14:12;;;;;;;20.20;12.80;;;;;;;10.36;66.53;98467.77;104898;1269;61151;-28
2024/03/23 00:16:39;;;;;;;20.40;12.50;;;;;;;10.09;67.09;98470.20;105095;1264;72581;-27
2024/03/23 00:19:07;;;;;;;22.60;12.90;;;;;;;9.71;69.13;98469.70;105117;1269;73149;-27
2024/03/23 00:21:40;;;;;;;14.80;8.90;;;;;;;9.44;70.04;98464.20;105105;1269;71743;-27
2024/03/23 00:31:48;;;;;;;17.30;9.80;;;;;;;10.05;67.80;98456.14;102704;1296;599470;-25
2024/03/23 00:34:15;;;;;;;22.80;12.50;;;;;;;9.74;68.86;98456.58;104837;1270;61081;-27
2024/03/23 00:36:43;;;;;;;22.70;12.80;;;;;;;9.57;69.48;98453.38;104884;1270;61192;-27
2024/03/23 00:47:09;;;;;;;18.30;10.10;;;;;;;10.14;67.98;98446.02;102593;1294;615250;-25
2024/03/23 00:49:36;;;;;;;16.00;9.00;;;;;;;9.87;68.62;98443.71;105178;1264;61157;-25
2024/03/23 00:52:03;;;;;;;24.60;14.10;;;;;;;9.71;68.92;98439.34;105142;1264;61177;-25
2024/03/23 00:54:30;;;;;;;14.40;9.20;;;;;;;9.47;69.97;98444.67;105187;1264;72997;-26
2024/03/23 00:56:57;;;;;;;22.80;12.00;;;;;;;9.80;69.57;98442.84;105096;1267;74103;-25
2024/03/23 00:59:28;;;;;;;15.00;8.00;;;;;;;10.13;68.16;98437.08;105549;1260;180349;-26
2024/03/23 01:01:55;;;;;;;20.40;12.00;;;;;;;10.14;67.89;98435.61;105688;1254;61084;-25
2024/03/23 01:04:22;;;;;;;22.90;11.40;;;;;;;9.87;68.74;98434.61;105855;1254;61051;-25
2024/03/23 01:06:49;;;;;;;29.20;14.30;;;;;;;9.69;69.38;98430.30;105957;1256;72835;-25
2024/03/23 01:09:16;;;;;;;21.20;12.40;;;;;;;9.37;71.10;98429.93;105915;1254;74183;-26
2024/03/23 01:11:43;;;;;;;21.50;12.50;;;;;;;9.61;70.58;98424.05;105933;1254;72652;-26
2024/03/23 01:14:10;;;;;;;30.70;13.50;;;;;;;10.01;69.22;98421.84;105920;1252;61163;-26
2024/03/23 01:16:36;;;;;;;19.80;10.80;;;;;;;10.07;68.91;98420.20;105970;1257;61131;-25
2024/03/23 01:19:03;;;;;;;21.30;11.70;;;;;;;10.05;68.59;98418.95;105917;1254;73721;-25
2024/03/23 01:21:30;;;;;;;18.30;11.40;;;;;;;9.87;69.17;98421.31;105914;1254;74627;-25
2024/03/23 01:23:57;;;;;;;25.50;15.20;;;;;;;9.64;70.08;98417.55;105937;1254;72582;-26
2024/03/23 01:26:42;;;;;;;13.70;8.20;;;;;;;9.57;70.82;98415.73;105815;1254;61962;-26
2024/03/23 01:29:09;;;;;;;13.20;8.80;;;;;;;10.12;69.05;98411.16;105934;1257;61090;-26
2024/03/23 01:31:36;;;;;;;25.00;11.30;;;;;;;10.25;68.31;98403.36;105906;1255;74413;-26
2024/03/23 01:34:03;;;;;;;20.70;10.60;;;;;;;10.11;68.76;98403.40;105888;1256;73138;-25
2024/03/23 01:36:30;;;;;;;24.60;14.50;;;;;;;9.86;69.56;98399.74;105820;1253;72450;-26
2024/03/23 01:38:57;;;;;;;27.00;16.30;;;;;;;9.76;69.90;98395.05;105899;1253;61157;-25
2024/03/23 01:41:24;;;;;;;19.20;11.30;;;;;;;10.27;68.27;98389.34;105961;1257;61551;-26
2024/03/23 01:43:51;;;;;;;18.40;11.90;;;;;;;10.99;65.44;98394.09;105827;1253;74303;-25
2024/03/23 01:46:18;;;;;;;18.90;11.70;;;;;;;11.17;64.34;98393.08;105843;1257;74144;-25
2024/03/23 01:48:45;;;;;;;23.10;13.00;;;;;;;11.00;64.43;98390.50;105962;1254;72515;-26
2024/03/23 01:51:13;;;;;;;21.20;12.30;;;;;;;10.67;65.32;98386.76;105923;1252;61095;-25
2024/03/23 01:53:39;;;;;;;20.10;13.00;;;;;;;10.35;66.66;98381.81;105699;1254;61133;-27
2024/03/23 01:56:07;;;;;;;14.60;7.90;;;;;;;9.65;69.60;98381.58;105771;1254;73618;-25
2024/03/23 01:58:34;;;;;;;21.10;13.20;;;;;;;10.03;68.98;98381.59;105885;1256;74329;-25
2024/03/23 02:01:01;;;;;;;24.90;13.90;;;;;;;10.15;68.25;98380.39;105819;1254;72659;-25
2024/03/23 02:03:29;;;;;;;17.00;9.00;;;;;;;10.15;68.07;98375.95;105881;1254;61141;-26
2024/03/23 02:05:56;;;;;;;23.60;14.60;;;;;;;9.71;69.65;98377.10;105929;1254;61083;-25
2024/03/23 02:08:23;;;;;;;23.80;13.20;;;;;;;9.52;70.55;98380.64;105879;1253;73761;-25
2024/03/23 02:10:50;;;;;;;25.50;13.40;;;;;;;9.81;70.23;98376.05;105925;1253;74588;-25
2024/03/23 02:13:18;;;;;;;17.60;10.40;;;;;;;10.31;67.99;98372.50;105884;1253;72634;-25
2024/03/23 02:15:45;;;;;;;17.70;11.20;;;;;;;10.35;67.73;98368.95;105724;1254;61170;-25
2024/03/23 02:18:12;;;;;;;23.10;12.30;;;;;;;10.20;67.86;98363.41;105735;1256;61148;-26
2024/03/23 02:20:39;;;;;;;30.00;16.20;;;;;;;9.96;68.57;98369.91;105623;1254;73766;-26
2024/03/23 02:23:06;;;;;;;24.20;14.80;;;;;;;9.64;69.64;98363.14;105673;1254;73123;-26
2024/03/23 02:25:33;;;;;;;17.80;10.00;;;;;;;9.84;69.40;98359.64;105679;1254;73060;-25
2024/03/23 02:28:00;;;;;;;19.10;9.60;;;;;;;10.18;68.24;98350.08;105682;1254;61118;-25
2024/03/23 02:30:27;;;;;;;19.70;11.20;;;;;;;10.27;67.63;98346.59;105887;1254;61041;-25
2024/03/23 02:32:54;;;;;;;25.70;13.50;;;;;;;10.03;68.21;98338.90;105938;1254;73664;-26
2024/03/23 02:35:21;;;;;;;21.60;12.80;;;;;;;9.89;68.60;98333.22;105832;1256;74175;-25
2024/03/23 02:37:51;;;;;;;15.00;9.30;;;;;;;9.35;70.97;98336.45;105510;1254;73129;-26
2024/03/23 02:40:18;;;;;;;24.70;13.10;;;;;;;9.85;69.56;98336.55;105768;1253;61140;-25
2024/03/23 02:42:45;;;;;;;25.00;12.70;;;;;;;10.13;68.24;98336.81;105753;1256;61159;-25
2024/03/23 02:45:12;;;;;;;23.90;13.80;;;;;;;10.09;67.91;98334.93;105925;1254;73637;-26
2024/03/23 02:47:39;;;;;;;18.10;10.20;;;;;;;9.97;68.27;98326.95;105858;1254;74690;-25
2024/03/23 02:50:06;;;;;;;27.70;16.10;;;;;;;9.73;68.82;98330.98;105624;1253;72688;-26
2024/03/23 02:52:34;;;;;;;18.80;10.10;;;;;;;9.44;70.16;98330.98;105696;1252;61955;-25
2024/03/23 02:55:01;;;;;;;21.20;10.20;;;;;;;10.10;68.58;98328.27;105768;1256;61157;-25
2024/03/23 02:57:29;;;;;;;13.00;7.70;;;;;;;10.37;66.79;98326.11;105654;1254;73650;-25
2024/03/23 02:59:56;;;;;;;14.40;8.30;;;;;;;10.19;67.29;98321.80;105770;1254;74226;-25
2024/03/23 03:02:23;;;;;;;25.80;13.50;;;;;;;9.87;68.56;98319.66;105531;1254;72556;-26
2024/03/23 03:04:50;;;;;;;29.20;14.40;;;;;;;9.61;69.66;98319.77;105584;1253;61542;-25
2024/03/23 03:07:17;;;;;;;18.90;10.50;;;;;;;9.38;70.76;98314.89;105594;1256;61073;-25
2024/03/23 03:09:44;;;;;;;22.90;13.10;;;;;;;9.73;69.73;98314.57;105628;1254;74206;-25
2024/03/23 03:12:11;;;;;;;18.30;11.00;;;;;;;9.99;68.72;98311.89;105837;1254;74163;-27
2024/03/23 03:14:38;;;;;;;13.70;8.20;;;;;;;9.80;69.35;98314.08;105742;1254;73197;-27
2024/03/23 03:17:10;;;;;;;21.20;10.20;;;;;;;9.63;69.87;98311.93;105738;1254;61220;-27
2024/03/23 03:19:37;;;;;;;25.70;13.80;;;;;;;9.43;70.63;98310.27;105874;1254;61143;-28
2024/03/23 03:22:04;;;;;;;17.40;10.60;;;;;;;9.39;71.10;98306.66;105764;1257;73848;-27
2024/03/23 03:24:31;;;;;;;20.90;11.00;;;;;;;9.89;69.76;98302.73;105925;1254;73255;-27
2024/03/23 03:26:58;;;;;;;15.40;10.20;;;;;;;9.99;68.92;98300.80;105787;1254;71488;-25
2024/03/23 03:29:25;;;;;;;25.10;13.30;;;;;;;9.92;68.99;98296.70;105707;1254;61141;-27
2024/03/23 03:31:52;;;;;;;18.10;10.60;;;;;;;10.00;68.63;98295.81;105681;1256;61118;-28
2024/03/23 03:34:19;;;;;;;24.90;12.80;;;;;;;9.73;69.50;98291.99;105695;1254;73827;-28
2024/03/23 03:36:46;;;;;;;21.70;10.20;;;;;;;9.53;70.00;98288.09;105650;1257;74284;-27
2024/03/23 03:39:13;;;;;;;13.90;8.00;;;;;;;9.97;69.40;98287.92;105514;1254;72626;-31
2024/03/23 03:41:40;;;;;;;17.40;10.70;;;;;;;10.22;68.09;98283.05;105724;1254;61140;-28
2024/03/23 03:44:07;;;;;;;14.20;10.60;;;;;;;10.20;67.89;98282.08;105830;1256;61122;-27
2024/03/23 03:46:34;;;;;;;19.20;11.50;;;;;;;10.21;67.63;98279.50;105827;1252;73982;-27
2024/03/23 03:49:00;;;;;;;24.50;13.30;;;;;;;10.06;67.67;98277.04;105762;1253;74266;-27
2024/03/23 03:51:27;;;;;;;21.30;12.60;;;;;;;9.99;67.91;98278.02;105547;1254;72463;-27
2024/03/23 03:53:54;;;;;;;16.70;8.90;;;;;;;9.88;68.05;98275.05;105594;1254;61767;-28
2024/03/23 03:56:22;;;;;;;20.50;11.60;;;;;;;10.01;68.51;98271.47;105755;1252;61153;-28
2024/03/23 03:58:49;;;;;;;15.20;8.60;;;;;;;10.54;66.63;98270.99;105760;1254;73693;-25
2024/03/23 04:01:16;;;;;;;22.60;10.80;;;;;;;10.23;67.13;98271.36;105801;1254;74356;-25
2024/03/23 04:03:43;;;;;;;20.90;11.50;;;;;;;10.09;67.49;98269.89;105624;1256;72582;-27
2024/03/23 04:06:10;;;;;;;23.60;14.20;;;;;;;10.02;67.57;98265.51;105824;1256;61259;-28
2024/03/23 04:08:37;;;;;;;19.60;13.40;;;;;;;9.86;68.22;98261.40;105623;1257;61199;-28
2024/03/23 04:11:04;;;;;;;18.30;10.80;;;;;;;9.60;69.06;98259.50;105833;1254;74072;-27
2024/03/23 04:13:31;;;;;;;17.50;10.80;;;;;;;10.23;67.48;98263.94;105799;1257;74359;-27
2024/03/23 04:15:58;;;;;;;19.70;12.10;;;;;;;10.46;66.38;98261.10;105858;1254;72518;-27
2024/03/23 04:18:25;;;;;;;18.40;11.10;;;;;;;10.38;66.07;98257.21;105595;1253;61096;-28
2024/03/23 04:20:52;;;;;;;22.30;12.70;;;;;;;9.99;67.20;98257.89;105707;1257;61093;-27
2024/03/23 04:23:19;;;;;;;18.20;12.30;;;;;;;9.95;67.45;98253.77;105624;1253;74135;-27
2024/03/23 04:25:46;;;;;;;19.10;12.70;;;;;;;9.75;67.89;98254.93;105858;1254;74317;-25
2024/03/23 04:28:13;;;;;;;18.90;10.70;;;;;;;9.81;68.17;98251.45;105662;1254;72631;-27
2024/03/23 04:30:40;;;;;;;22.50;12.00;;;;;;;10.32;66.49;98249.75;105664;1254;61133;-28
2024/03/23 04:34:32;;;;;;;22.00;11.20;;;;;;;10.34;66.10;98251.27;102722;1293;601179;-25
2024/03/23 04:43:13;;;;;;;15.70;8.50;;;;;;;9.89;67.20;98239.63;102905;1292;599989;-25
2024/03/23 04:45:41;;;;;;;17.40;9.60;;;;;;;10.18;66.53;98246.17;104836;1270;61375;-26
2024/03/23 04:48:08;;;;;;;24.50;11.10;;;;;;;10.75;64.87;98245.06;105116;1269;61138;-26
2024/03/23 04:50:36;;;;;;;24.50;12.40;;;;;;;11.20;62.59;98245.30;104882;1270;73010;-26
2024/03/23 04:53:04;;;;;;;18.70;12.10;;;;;;;11.03;62.75;98249.66;104934;1264;74329;-25
2024/03/23 04:55:31;;;;;;;17.50;11.30;;;;;;;10.93;62.75;98245.80;105049;1269;71394;-26
2024/03/23 04:57:59;;;;;;;24.10;12.00;;;;;;;10.65;63.60;98239.91;105025;1264;209791;-25
2024/03/23 05:00:27;;;;;;;19.30;12.10;;;;;;;10.47;64.29;98236.02;105168;1263;61048;-25
2024/03/23 05:02:54;;;;;;;15.00;8.50;;;;;;;10.78;64.04;98233.02;104820;1262;72975;-25
2024/03/23 05:05:22;;;;;;;20.80;11.00;;;;;;;10.70;63.87;98229.59;105111;1264;74310;-25
2024/03/23 05:14:16;;;;;;;13.40;9.00;;;;;;;10.49;64.66;98234.30;102811;1289;600034;-25
2024/03/23 05:16:44;;;;;;;15.60;10.20;;;;;;;10.40;64.60;98235.80;104831;1271;61200;-25
2024/03/23 05:19:11;;;;;;;14.20;8.70;;;;;;;9.98;66.44;98231.70;104938;1269;61057;-25
2024/03/23 05:21:39;;;;;;;13.70;9.10;;;;;;;10.62;64.39;98229.05;104854;1268;72996;-25
2024/03/23 05:24:07;;;;;;;19.60;11.50;;;;;;;10.94;62.80;98236.98;104880;1272;74477;-25
2024/03/23 05:26:35;;;;;;;16.50;9.90;;;;;;;11.03;62.49;98236.02;105116;1268;72460;-26
2024/03/23 05:29:03;;;;;;;20.90;12.10;;;;;;;10.77;62.91;98235.63;105129;1266;169121;-27
2024/03/23 05:31:31;;;;;;;18.50;11.40;;;;;;;10.63;63.56;98243.96;105191;1266;61046;-28
2024/03/23 05:33:58;;;;;;;19.60;12.90;;;;;;;10.48;64.11;98243.04;105185;1261;71759;-28
2024/03/23 05:36:26;;;;;;;17.00;9.80;;;;;;;10.51;64.61;98240.15;105045;1266;73121;-27
2024/03/23 05:38:53;;;;;;;12.80;8.20;;;;;;;11.04;62.48;98237.33;104821;1266;72650;-28
2024/03/23 05:41:23;;;;;;;15.40;8.60;;;;;;;11.21;61.96;98233.55;105012;1264;60988;-27
2024/03/23 05:43:51;;;;;;;16.30;8.60;;;;;;;10.86;62.56;98232.37;105171;1262;61248;-25
2024/03/23 05:46:18;;;;;;;17.00;10.10;;;;;;;10.93;62.15;98228.27;105222;1276;72556;-27
2024/03/23 05:48:46;;;;;;;19.20;10.90;;;;;;;10.77;63.03;98231.16;105135;1260;73136;-25
2024/03/23 05:51:14;;;;;;;16.20;10.60;;;;;;;11.00;62.19;98234.69;105188;1267;73107;-25
2024/03/23 06:13:47;;;;;;;14.20;8.00;;;;;;;11.37;60.11;98218.43;105209;1264;74047;-27
2024/03/23 06:16:14;;;;;;;10.30;5.80;;;;;;;10.95;60.99;98213.95;104719;1272;61148;-27
2024/03/23 06:18:42;;;;;;;10.60;7.10;;;;;;;11.61;59.93;98212.80;104840;1272;61169;-27
2024/03/23 06:21:14;;;;;;;12.60;7.40;;;;;;;11.73;59.12;98210.80;105726;1258;72605;-27
2024/03/23 06:23:42;;;;;;;13.90;7.90;;;;;;;11.85;58.11;98214.25;105577;1260;74301;-27
2024/03/23 06:26:10;;;;;;;11.20;6.60;;;;;;;11.91;58.35;98214.58;105523;1257;71400;-27
2024/03/23 06:36:22;;;;;;;14.10;9.10;;;;;;;11.54;58.63;98198.88;102737;1290;599932;-26
2024/03/23 06:46:27;;;;;;;16.20;9.00;;;;;;;11.90;57.32;98204.76;102682;1292;599928;-25
2024/03/23 06:48:55;;;;;;;11.80;6.50;;;;;;;11.97;56.83;98200.64;104804;1265;61105;-25
2024/03/23 06:51:23;;;;;;;13.90;9.10;;;;;;;11.91;57.00;98203.39;104770;1266;61210;-25
2024/03/23 06:53:50;;;;;;;17.00;8.70;;;;;;;11.94;56.72;98202.46;104831;1271;71829;-25
2024/03/23 06:56:18;;;;;;;14.30;8.10;;;;;;;11.83;57.09;98203.90;104767;1267;74420;-25
2024/03/23 06:58:46;;;;;;;14.40;8.80;;;;;;;12.10;56.13;98212.93;104768;1269;72679;-25
2024/03/23 07:01:13;;;;;;;13.00;7.60;;;;;;;12.30;55.67;98212.79;104773;1268;218087;-25
2024/03/23 07:11:23;;;;;;;13.20;8.00;;;;;;;11.99;55.90;98201.55;102672;1289;599061;-26
2024/03/23 07:13:51;;;;;;;11.70;7.80;;;;;;;12.10;55.54;98201.91;104858;1272;61072;-27
2024/03/23 07:16:18;;;;;;;15.50;8.30;;;;;;;12.00;55.84;98196.63;105189;1262;61169;-26
2024/03/23 07:18:46;;;;;;;13.10;7.30;;;;;;;12.14;55.45;98198.61;104968;1268;73182;-26
2024/03/23 07:21:14;;;;;;;15.10;8.30;;;;;;;12.05;55.47;98197.55;104996;1269;72474;-26
2024/03/23 07:23:44;;;;;;;13.90;7.70;;;;;;;12.10;55.74;98199.48;105255;1267;72644;-26
2024/03/23 07:26:12;;;;;;;10.20;6.70;;;;;;;12.24;55.40;98196.69;105455;1258;61165;-26
2024/03/23 07:28:43;;;;;;;9.70;6.90;;;;;;;12.19;55.21;98196.61;105651;1261;61094;-26
2024/03/23 07:31:11;;;;;;;13.50;8.80;;;;;;;12.48;54.54;98197.40;105588;1262;73003;-26
2024/03/23 07:33:47;;;;;;;13.50;7.60;;;;;;;12.65;54.34;98205.05;105499;1263;74304;-26
2024/03/23 07:36:14;;;;;;;12.20;7.90;;;;;;;12.54;54.72;98205.96;105287;1261;71405;-26
2024/03/23 07:38:45;;;;;;;10.60;7.40;;;;;;;12.59;54.85;98202.52;105387;1262;61057;-26
2024/03/23 07:41:22;;;;;;;11.40;7.20;;;;;;;12.64;54.25;98199.89;105185;1263;61257;-26
2024/03/23 07:43:50;;;;;;;13.90;6.90;;;;;;;12.61;54.12;98196.55;105505;1261;71513;-26
2024/03/23 07:46:19;;;;;;;13.90;8.20;;;;;;;12.63;53.67;98186.31;105601;1267;74375;-26
2024/03/23 07:48:47;;;;;;;14.20;7.80;;;;;;;12.82;53.32;98192.55;105211;1258;72657;-26
2024/03/23 07:51:20;;;;;;;14.30;8.30;;;;;;;12.77;53.17;98185.65;105581;1256;61109;-26
2024/03/23 08:01:27;;;;;;;11.10;7.80;;;;;;;13.17;52.27;98178.91;102733;1295;600232;-27
2024/03/23 08:03:55;;;;;;;10.30;7.40;;;;;;;13.22;52.34;98174.08;105001;1269;61196;-27
2024/03/23 08:06:23;;;;;;;8.60;6.00;;;;;;;13.35;51.69;98166.25;104925;1270;62559;-27
2024/03/23 08:08:59;;;;;;;16.40;8.50;;;;;;;13.45;51.35;98166.27;105098;1269;73001;-25
2024/03/23 08:11:27;;;;;;;11.50;7.50;;;;;;;13.53;50.99;98168.86;104842;1270;75940;-25
2024/03/23 08:13:55;;;;;;;8.90;6.10;;;;;;;13.58;50.72;98160.84;104770;1270;196308;-26
2024/03/23 08:16:23;;;;;;;10.50;7.00;;;;;;;13.89;50.05;98162.69;104886;1264;62778;-26
2024/03/23 08:18:51;;;;;;;10.20;7.00;;;;;;;13.86;50.35;98162.36;105013;1267;61100;-26
2024/03/23 08:21:19;;;;;;;9.40;6.70;;;;;;;13.86;50.19;98156.80;104893;1264;73058;-26
2024/03/23 08:23:47;;;;;;;10.30;7.00;;;;;;;13.84;50.11;98156.78;105369;1263;72734;-26
2024/03/23 08:26:15;;;;;;;10.20;7.00;;;;;;;14.19;49.19;98155.65;105145;1261;72642;-26
2024/03/23 08:28:43;;;;;;;10.90;5.90;;;;;;;13.69;50.46;98145.35;105185;1267;61182;-26
2024/03/23 08:31:11;;;;;;;11.40;7.00;;;;;;;13.78;49.86;98144.05;105015;1259;62801;-26
2024/03/23 08:33:39;;;;;;;11.10;7.50;;;;;;;13.87;50.02;98147.90;105033;1264;73839;-26
2024/03/23 08:36:08;;;;;;;11.90;7.30;;;;;;;13.91;49.87;98141.41;105079;1267;74344;-26
2024/03/23 08:38:35;;;;;;;10.80;7.50;;;;;;;14.14;49.39;98138.35;105236;1266;75608;-26
2024/03/23 08:41:10;;;;;;;10.00;7.10;;;;;;;14.21;49.03;98133.06;105337;1261;61859;-26
2024/03/23 08:43:39;;;;;;;19.20;7.30;;;;;;;14.48;48.53;98133.41;105144;1264;63944;-26
2024/03/23 08:46:11;;;;;;;9.80;7.30;;;;;;;14.71;47.68;98132.80;105092;1260;76088;-26
2024/03/23 08:48:40;;;;;;;9.70;6.50;;;;;;;14.76;47.89;98129.53;105226;1261;74287;-27
2024/03/23 08:59:06;;;;;;;11.50;7.10;;;;;;;14.81;47.02;98111.73;102487;1295;616161;-26
2024/03/23 09:01:32;;;;;;;12.30;6.60;;;;;;;15.44;45.98;98106.27;105114;1269;61106;-26
2024/03/23 09:03:59;;;;;;;11.80;6.50;;;;;;;15.49;45.79;98106.21;105196;1268;62006;-26
2024/03/23 09:06:27;;;;;;;14.60;8.60;;;;;;;15.26;45.14;98098.89;105157;1267;74676;-28
2024/03/23 09:08:54;;;;;;;10.50;6.90;;;;;;;15.54;44.96;98101.44;105284;1257;74300;-27
2024/03/23 09:11:21;;;;;;;9.10;6.50;;;;;;;15.68;44.64;98098.04;105299;1258;204679;-27
2024/03/23 09:13:49;;;;;;;10.50;6.80;;;;;;;15.60;44.94;98092.72;105559;1254;61755;-27
2024/03/23 09:16:16;;;;;;;10.70;7.30;;;;;;;15.41;45.14;98098.23;105462;1260;61169;-26
2024/03/23 09:18:45;;;;;;;10.20;6.40;;;;;;;15.21;45.91;98096.69;105634;1254;74400;-26
2024/03/23 09:21:15;;;;;;;12.20;7.50;;;;;;;15.13;46.18;98089.05;105678;1254;75881;-26
2024/03/23 09:23:45;;;;;;;14.20;7.20;;;;;;;15.37;45.67;98082.92;105614;1257;74637;-26
2024/03/23 09:26:13;;;;;;;12.60;7.70;;;;;;;15.86;44.56;98081.28;105714;1255;61307;-26
2024/03/23 09:28:40;;;;;;;12.40;7.20;;;;;;;15.75;44.74;98079.52;105718;1257;61690;-26
2024/03/23 09:31:09;;;;;;;9.80;6.20;;;;;;;15.63;45.39;98076.25;105629;1254;73803;-26
2024/03/23 09:33:36;;;;;;;11.40;7.00;;;;;;;15.79;44.94;98071.06;105453;1259;76171;-26
2024/03/23 09:36:04;;;;;;;9.90;7.00;;;;;;;15.86;44.72;98066.75;105681;1254;74467;-26
2024/03/23 09:38:31;;;;;;;7.40;5.60;;;;;;;15.86;44.62;98070.59;105667;1254;61083;-26
2024/03/23 09:40:59;;;;;;;12.00;8.20;;;;;;;15.70;44.63;98069.01;105658;1254;61099;-27
2024/03/23 09:43:26;;;;;;;12.00;6.30;;;;;;;15.50;45.19;98070.04;105669;1254;75715;-26
2024/03/23 09:45:53;;;;;;;12.20;8.10;;;;;;;15.69;45.32;98064.83;105590;1254;74547;-28
2024/03/23 09:48:20;;;;;;;11.10;7.30;;;;;;;15.84;44.90;98063.69;105641;1254;74517;-27
2024/03/23 09:50:48;;;;;;;9.00;6.00;;;;;;;15.79;45.18;98059.98;105555;1257;61874;-27
2024/03/23 09:53:15;;;;;;;11.20;7.50;;;;;;;15.49;45.59;98058.52;105607;1258;61231;-26
2024/03/23 09:55:44;;;;;;;10.40;6.60;;;;;;;15.90;45.29;98056.66;105705;1254;75208;-27
2024/03/23 09:58:16;;;;;;;11.70;7.50;;;;;;;16.23;45.06;98056.56;105483;1254;74807;-26
2024/03/23 10:00:44;;;;;;;9.80;7.50;;;;;;;16.31;44.83;98053.69;105677;1254;74165;-26
2024/03/23 10:03:11;;;;;;;9.80;7.10;;;;;;;16.41;44.43;98056.56;105695;1260;61140;-26
2024/03/23 10:05:38;;;;;;;10.30;6.40;;;;;;;16.51;44.43;98050.48;105731;1259;61945;-26
2024/03/23 10:08:14;;;;;;;11.70;7.10;;;;;;;16.51;44.07;98044.50;105669;1254;73986;-26
2024/03/23 10:10:41;;;;;;;12.90;9.10;;;;;;;16.34;44.21;98044.02;105676;1254;75589;-26
2024/03/23 10:13:08;;;;;;;12.20;7.20;;;;;;;16.34;44.20;98043.49;105785;1255;74590;-27
2024/03/23 10:15:36;;;;;;;13.80;7.70;;;;;;;16.32;44.62;98040.48;105741;1254;61801;-26
2024/03/23 10:18:15;;;;;;;12.80;6.10;;;;;;;16.13;44.15;98033.61;105754;1254;62178;-26
2024/03/23 10:20:44;;;;;;;10.10;7.90;;;;;;;15.73;45.16;98030.97;105584;1254;75390;-27
2024/03/23 10:23:16;;;;;;;9.70;6.60;;;;;;;16.15;45.00;98036.91;105577;1254;75901;-26
2024/03/23 10:25:43;;;;;;;11.10;7.10;;;;;;;16.23;44.37;98028.43;105374;1254;73735;-27
2024/03/23 10:28:11;;;;;;;12.90;7.70;;;;;;;16.36;44.40;98027.83;105738;1254;61508;-26
2024/03/23 10:30:39;;;;;;;10.00;6.50;;;;;;;16.53;44.12;98028.14;105626;1260;61849;-27
2024/03/23 10:33:10;;;;;;;14.10;8.30;;;;;;;16.44;44.33;98017.04;105651;1254;74289;-26
2024/03/23 10:35:38;;;;;;;9.80;6.00;;;;;;;16.39;44.56;98017.18;105957;1251;75670;-27
2024/03/23 10:38:09;;;;;;;14.80;8.60;;;;;;;16.33;44.21;98015.89;105960;1251;74032;-27
2024/03/23 10:40:36;;;;;;;10.50;7.50;;;;;;;16.27;44.35;98011.79;105729;1251;62200;-27
2024/03/23 10:43:04;;;;;;;13.20;7.70;;;;;;;16.26;44.58;98003.81;105856;1256;61930;-26
2024/03/23 10:45:32;;;;;;;13.50;7.90;;;;;;;16.15;44.72;98005.16;105990;1251;75264;-26
2024/03/23 10:47:59;;;;;;;13.20;7.30;;;;;;;16.15;44.58;98006.29;105930;1251;75419;-27
2024/03/23 10:50:26;;;;;;;12.70;8.10;;;;;;;16.16;44.91;98003.67;105886;1251;74033;-27
2024/03/23 10:52:55;;;;;;;9.60;6.60;;;;;;;16.20;44.75;97999.71;105647;1251;61108;-26
2024/03/23 10:55:22;;;;;;;10.30;7.20;;;;;;;16.23;44.48;98003.09;105568;1253;61262;-26
2024/03/23 10:57:51;;;;;;;10.90;7.50;;;;;;;16.24;44.27;97994.46;105706;1251;72504;-26
2024/03/23 11:00:21;;;;;;;12.90;7.90;;;;;;;16.26;44.52;97991.16;105707;1251;76226;-26
2024/03/23 11:02:48;;;;;;;9.80;6.60;;;;;;;16.23;44.39;97985.96;105973;1251;73533;-26
2024/03/23 11:05:29;;;;;;;11.60;7.50;;;;;;;16.20;44.88;97982.38;105958;1251;61913;-27
2024/03/23 11:07:56;;;;;;;10.50;7.20;;;;;;;16.19;44.28;97973.73;105742;1259;61644;-27
2024/03/23 11:10:28;;;;;;;11.80;7.60;;;;;;;16.42;44.71;97978.62;105853;1251;73704;-26
2024/03/23 11:13:22;;;;;;;10.00;6.70;;;;;;;16.51;44.26;97980.31;105893;1255;75835;-26
2024/03/23 11:15:49;;;;;;;9.20;7.00;;;;;;;16.49;44.06;97975.92;105937;1251;73317;-26
2024/03/23 11:18:22;;;;;;;12.00;6.30;;;;;;;16.47;43.94;97970.13;105933;1252;61933;-26
2024/03/23 11:20:49;;;;;;;8.60;6.50;;;;;;;16.21;44.16;97965.13;105718;1251;61659;-26
2024/03/23 11:23:27;;;;;;;13.30;8.30;;;;;;;16.27;44.37;97966.08;105776;1251;75320;-26
2024/03/23 11:25:54;;;;;;;9.70;7.10;;;;;;;16.34;44.22;97967.88;105638;1258;75198;-27
2024/03/23 11:28:21;;;;;;;8.90;6.80;;;;;;;16.30;44.09;97958.75;105926;1251;74071;-25
2024/03/23 11:30:49;;;;;;;7.20;5.30;;;;;;;16.38;44.42;97965.29;105892;1257;61824;-26
2024/03/23 11:33:16;;;;;;;11.90;8.00;;;;;;;16.26;44.39;97964.66;105958;1257;61912;-26
2024/03/23 11:35:43;;;;;;;15.70;8.40;;;;;;;16.17;44.82;97956.94;105980;1251;75367;-26
2024/03/23 11:38:11;;;;;;;10.20;7.40;;;;;;;16.25;44.52;97959.67;105952;1251;74702;-26
2024/03/23 11:40:39;;;;;;;11.30;8.30;;;;;;;16.22;44.66;97952.84;105906;1251;74330;-27
2024/03/23 11:43:08;;;;;;;13.80;7.80;;;;;;;16.33;44.48;97949.73;105564;1253;61656;-27
2024/03/23 11:45:37;;;;;;;11.60;7.80;;;;;;;16.43;45.07;97949.56;105683;1257;61077;-26
2024/03/23 11:48:14;;;;;;;9.60;7.20;;;;;;;16.55;45.20;97941.33;105769;1251;75145;-26
2024/03/23 11:50:43;;;;;;;10.30;6.20;;;;;;;16.72;44.80;97946.08;105789;1252;75867;-27
2024/03/23 11:53:18;;;;;;;10.00;7.40;;;;;;;16.84;44.17;97941.08;105664;1254;73976;-27
2024/03/23 11:55:49;;;;;;;11.00;7.90;;;;;;;16.76;44.53;97934.76;105758;1251;61903;-26
2024/03/23 11:58:22;;;;;;;12.70;7.30;;;;;;;16.71;44.30;97924.13;105585;1257;62427;-26
2024/03/23 12:00:59;;;;;;;14.60;8.50;;;;;;;16.86;44.83;97932.04;105589;1251;72530;-26
2024/03/23 12:03:28;;;;;;;10.50;7.10;;;;;;;17.02;44.69;97925.84;105616;1251;75878;-27
2024/03/23 12:05:57;;;;;;;9.50;7.00;;;;;;;17.06;43.93;97917.86;105803;1251;74251;-27
2024/03/23 12:08:28;;;;;;;14.60;7.60;;;;;;;16.99;43.46;97912.23;105911;1251;61997;-27
2024/03/23 12:11:13;;;;;;;12.30;8.00;;;;;;;16.89;43.41;97916.80;105721;1260;61221;-26
2024/03/23 12:13:43;;;;;;;9.50;7.10;;;;;;;16.92;43.73;97915.23;105676;1251;74192;-26
2024/03/23 12:16:11;;;;;;;12.00;6.40;;;;;;;17.02;44.03;97918.80;105663;1258;76045;-27
2024/03/23 12:18:42;;;;;;;11.30;8.50;;;;;;;17.04;43.91;97910.88;105831;1251;74074;-26
2024/03/23 12:21:09;;;;;;;10.90;6.80;;;;;;;17.09;43.94;97905.49;105753;1251;61062;-26
2024/03/23 12:23:39;;;;;;;9.70;7.40;;;;;;;17.15;44.12;97907.83;105973;1255;61737;-26
2024/03/23 12:26:06;;;;;;;12.30;6.90;;;;;;;17.38;43.90;97900.95;105735;1251;75520;-26
2024/03/23 12:28:34;;;;;;;11.50;7.40;;;;;;;17.38;43.17;97905.20;105914;1251;75805;-27
2024/03/23 12:31:01;;;;;;;9.70;7.30;;;;;;;17.30;43.60;97896.18;105676;1251;73557;-26
2024/03/23 12:33:29;;;;;;;10.00;7.00;;;;;;;17.24;43.52;97904.50;105874;1251;62123;-26
2024/03/23 12:35:56;;;;;;;9.10;6.50;;;;;;;17.23;43.72;97903.48;105795;1255;62005;-25
2024/03/23 12:38:24;;;;;;;12.10;8.40;;;;;;;17.14;44.08;97905.40;105851;1251;75258;-26
2024/03/23 12:40:51;;;;;;;12.50;8.10;;;;;;;17.06;44.32;97899.73;105718;1251;74783;-27
2024/03/23 12:43:18;;;;;;;11.30;7.60;;;;;;;17.15;43.96;97896.29;105965;1251;73953;-26
2024/03/23 12:45:49;;;;;;;11.40;7.50;;;;;;;17.08;44.68;97893.23;105756;1252;62641;-26
2024/03/23 12:48:17;;;;;;;13.90;7.80;;;;;;;16.93;44.41;97883.91;105546;1260;61160;-26
2024/03/23 12:50:43;;;;;;;11.10;7.50;;;;;;;16.84;44.65;97882.38;105846;1251;73508;-26